createdAt,value
2022-12-18T00:00:06.941Z,45.55
2022-12-18T00:03:01.598Z,52.33
2022-12-18T00:05:29.398Z,51.85
2022-12-18T00:07:57.224Z,50.85
2022-12-18T00:10:24.809Z,48.15
2022-12-18T00:12:52.744Z,47.30
2022-12-18T00:15:20.861Z,49.72
2022-12-18T00:17:48.770Z,51.35
2022-12-18T00:20:16.470Z,43.47
2022-12-18T00:22:44.328Z,44.28
2022-12-18T00:25:11.823Z,45.10
2022-12-18T00:27:39.791Z,42.55
2022-12-18T00:30:08.074Z,40.42
2022-12-18T00:32:35.987Z,47.03
2022-12-18T00:35:03.928Z,43.97
2022-12-18T00:37:34.507Z,42.80
2022-12-18T00:40:02.497Z,40.95
2022-12-18T00:42:49.101Z,45.03
2022-12-18T00:45:16.870Z,39.30
2022-12-18T00:47:44.726Z,40.40
2022-12-18T00:50:12.456Z,41.05
2022-12-18T00:52:41.667Z,42.47
2022-12-18T00:55:09.696Z,45.92
2022-12-18T00:57:37.755Z,40.13
2022-12-18T01:00:08.191Z,37.63
2022-12-18T01:02:36.836Z,38.30
2022-12-18T01:05:05.422Z,33.65
2022-12-18T01:07:33.540Z,42.38
2022-12-18T01:10:01.141Z,43.97
2022-12-18T01:12:29.222Z,42.53
2022-12-18T01:14:56.801Z,41.38
2022-12-18T01:17:25.067Z,43.67
2022-12-18T01:19:52.619Z,38.15
2022-12-18T01:22:20.522Z,39.85
2022-12-18T01:24:48.237Z,42.55
2022-12-18T01:27:16.620Z,41.45
2022-12-18T01:29:44.337Z,50.30
2022-12-18T01:32:12.316Z,37.75
2022-12-18T01:34:40.011Z,41.95
2022-12-18T01:37:07.984Z,41.50
2022-12-18T01:39:35.702Z,40.95
2022-12-18T01:42:15.755Z,39.13
2022-12-18T01:45:28.562Z,40.60
2022-12-18T01:48:08.385Z,40.70
2022-12-18T01:50:43.863Z,39.65
2022-12-18T01:53:22.034Z,45.20
2022-12-18T01:55:56.573Z,46.85
2022-12-18T01:58:56.374Z,37.65
2022-12-18T02:01:25.821Z,43.10
2022-12-18T02:03:54.226Z,41.33
2022-12-18T02:06:40.879Z,40.58
2022-12-18T02:09:28.026Z,38.70
2022-12-18T02:12:22.061Z,41.92
2022-12-18T02:15:19.897Z,45.42
2022-12-18T02:17:57.648Z,44.20
2022-12-18T02:20:31.927Z,36.15
2022-12-18T02:23:19.920Z,36.95
2022-12-18T02:26:21.359Z,40.22
2022-12-18T02:29:23.784Z,39.70
2022-12-18T02:31:55.966Z,36.78
2022-12-18T02:34:30.276Z,39.58
2022-12-18T02:37:03.512Z,44.58
2022-12-18T02:39:34.104Z,40.95
2022-12-18T02:42:09.017Z,48.13
2022-12-18T02:44:46.354Z,36.45
2022-12-18T02:47:21.513Z,44.08
2022-12-18T02:50:54.181Z,40.03
2022-12-18T02:53:37.540Z,45.08
2022-12-18T02:56:13.582Z,40.25
2022-12-18T02:59:02.342Z,40.38
2022-12-18T03:02:22.534Z,38.92
2022-12-18T03:05:39.128Z,44.15
2022-12-18T03:08:18.662Z,46.35
2022-12-18T03:11:03.877Z,45.22
2022-12-18T03:13:47.955Z,39.63
2022-12-18T03:16:31.011Z,45.08
2022-12-18T03:19:22.738Z,42.67
2022-12-18T03:21:56.924Z,45.58
2022-12-18T03:24:30.693Z,46.15
2022-12-18T03:27:11.619Z,38.53
2022-12-18T03:30:08.202Z,44.10
2022-12-18T03:32:59.971Z,38.70
2022-12-18T03:35:34.839Z,40.85
2022-12-18T03:38:03.215Z,39.88
2022-12-18T03:40:46.030Z,46.10
2022-12-18T03:43:33.666Z,41.90
2022-12-18T03:46:18.559Z,38.08
2022-12-18T03:48:52.865Z,36.63
2022-12-18T03:52:08.620Z,35.60
2022-12-18T03:54:39.554Z,40.95
2022-12-18T03:57:29.485Z,38.30
2022-12-18T04:00:13.514Z,35.13
2022-12-18T04:02:58.161Z,38.95
2022-12-18T04:05:36.764Z,41.88
2022-12-18T04:08:05.481Z,39.83
2022-12-18T04:10:38.138Z,41.92
2022-12-18T04:13:05.742Z,35.97
2022-12-18T04:15:37.049Z,35.70
2022-12-18T04:18:06.723Z,43.22
2022-12-18T04:20:41.244Z,47.25
2022-12-18T04:23:09.521Z,36.80
2022-12-18T04:25:37.992Z,41.03
2022-12-18T04:28:09.089Z,41.97
2022-12-18T04:30:39.323Z,38.58
2022-12-18T04:33:20.250Z,38.92
2022-12-18T04:35:48.093Z,40.55
2022-12-18T04:38:15.758Z,40.13
2022-12-18T04:40:44.804Z,40.20
2022-12-18T04:43:21.738Z,43.08
2022-12-18T04:45:49.652Z,41.15
2022-12-18T04:48:17.281Z,40.72
2022-12-18T04:50:45.167Z,39.75
2022-12-18T04:53:12.656Z,37.90
2022-12-18T04:55:40.555Z,38.80
2022-12-18T04:58:08.068Z,41.08
2022-12-18T05:03:05.006Z,41.97
2022-12-18T05:05:32.916Z,42.72
2022-12-18T05:08:00.808Z,40.50
2022-12-18T05:10:31.217Z,38.70
2022-12-18T05:13:03.886Z,39.08
2022-12-18T05:15:33.784Z,43.03
2022-12-18T05:20:30.364Z,42.83
2022-12-18T05:22:58.746Z,46.40
2022-12-18T05:25:26.637Z,40.33
2022-12-18T05:27:54.286Z,42.10
2022-12-18T05:30:22.202Z,42.53
2022-12-18T05:32:49.703Z,42.45
2022-12-18T05:35:17.588Z,37.75
2022-12-18T05:37:45.497Z,41.07
2022-12-18T05:40:14.171Z,43.90
2022-12-18T05:42:41.748Z,44.92
2022-12-18T05:45:10.223Z,43.08
2022-12-18T05:47:37.877Z,48.03
2022-12-18T05:50:06.653Z,43.38
2022-12-18T05:52:34.089Z,43.30
2022-12-18T05:55:02.252Z,42.58
2022-12-18T05:57:30.091Z,48.30
2022-12-18T05:59:57.888Z,46.58
2022-12-18T06:02:25.446Z,41.70
2022-12-18T06:04:53.416Z,41.92
2022-12-18T06:07:20.990Z,45.33
2022-12-18T06:09:48.898Z,46.42
2022-12-18T06:12:16.767Z,47.92
2022-12-18T06:14:44.861Z,47.33
2022-12-18T06:17:12.402Z,47.85
2022-12-18T06:19:40.261Z,45.08
2022-12-18T06:22:07.946Z,42.60
2022-12-18T06:24:35.785Z,40.72
2022-12-18T06:27:03.420Z,46.30
2022-12-18T06:29:31.244Z,46.75
2022-12-18T06:31:58.815Z,54.90
2022-12-18T06:34:26.832Z,47.80
2022-12-18T06:36:54.292Z,43.92
2022-12-18T06:39:22.186Z,41.50
2022-12-18T06:41:49.691Z,43.90
2022-12-18T06:44:17.617Z,43.72
2022-12-18T06:46:45.120Z,47.60
2022-12-18T06:49:13.491Z,47.47
2022-12-18T06:51:41.288Z,49.63
2022-12-18T06:54:09.769Z,46.17
2022-12-18T06:56:37.242Z,48.53
2022-12-18T06:59:05.163Z,43.08
2022-12-18T07:01:32.907Z,44.58
2022-12-18T07:04:00.827Z,47.80
2022-12-18T07:06:28.408Z,46.20
2022-12-18T07:08:56.635Z,49.15
2022-12-18T07:11:24.532Z,48.10
2022-12-18T07:13:53.910Z,56.08
2022-12-18T07:16:25.366Z,57.38
2022-12-18T07:18:56.601Z,45.10
2022-12-18T07:21:25.716Z,52.85
2022-12-18T07:23:53.784Z,55.45
2022-12-18T07:26:22.997Z,48.60
2022-12-18T07:31:22.691Z,52.10
2022-12-18T07:33:52.672Z,56.03
2022-12-18T07:36:23.637Z,60.17
2022-12-18T07:38:55.776Z,52.85
2022-12-18T07:41:23.636Z,51.75
2022-12-18T07:43:51.461Z,53.25
2022-12-18T07:46:19.643Z,53.80
2022-12-18T07:48:49.821Z,54.83
2022-12-18T07:51:19.414Z,54.85
2022-12-18T07:53:49.309Z,59.70
2022-12-18T07:56:29.038Z,53.05
2022-12-18T07:58:58.568Z,53.05
2022-12-18T08:01:26.854Z,55.53
2022-12-18T08:03:55.083Z,52.92
2022-12-18T08:06:24.197Z,53.92
2022-12-18T08:08:57.212Z,60.63
2022-12-18T08:11:27.282Z,53.85
2022-12-18T08:13:55.975Z,54.05
2022-12-18T08:16:24.123Z,54.10
2022-12-18T08:18:54.635Z,52.87
2022-12-18T08:21:27.375Z,52.85
2022-12-18T08:24:17.296Z,54.33
2022-12-18T08:27:06.684Z,52.50
2022-12-18T08:29:36.325Z,59.90
2022-12-18T08:32:04.302Z,60.63
2022-12-18T08:34:32.449Z,57.17
2022-12-18T08:37:00.988Z,54.38
2022-12-18T08:39:30.110Z,56.63
2022-12-18T08:42:16.058Z,56.70
2022-12-18T08:44:44.016Z,63.28
2022-12-18T08:47:11.598Z,56.00
2022-12-18T08:49:39.501Z,60.20
2022-12-18T08:52:07.524Z,58.65
2022-12-18T08:54:35.442Z,59.47
2022-12-18T08:57:03.266Z,64.10
2022-12-18T08:59:31.190Z,63.25
2022-12-18T09:01:58.894Z,62.58
2022-12-18T09:04:27.004Z,62.08
2022-12-18T09:06:57.533Z,62.00
2022-12-18T09:09:25.500Z,56.55
2022-12-18T09:11:53.037Z,59.33
2022-12-18T09:14:20.921Z,51.67
2022-12-18T09:16:48.621Z,52.83
2022-12-18T09:19:16.531Z,53.88
2022-12-18T09:21:47.993Z,51.38
2022-12-18T09:24:17.490Z,56.10
2022-12-18T09:26:47.119Z,46.20
2022-12-18T09:29:18.932Z,51.97
2022-12-18T09:31:47.624Z,49.70
2022-12-18T09:34:15.607Z,50.58
2022-12-18T09:36:43.407Z,52.63
2022-12-18T09:39:11.883Z,50.87
2022-12-18T09:41:58.138Z,56.05
2022-12-18T09:44:45.719Z,49.40
2022-12-18T09:47:38.776Z,53.53
2022-12-18T09:50:47.562Z,58.28
2022-12-18T09:53:23.862Z,52.85
2022-12-18T09:55:54.413Z,53.03
2022-12-18T09:58:50.289Z,56.22
2022-12-18T10:01:24.329Z,46.38
2022-12-18T10:03:53.578Z,53.70
2022-12-18T10:06:43.226Z,53.42
2022-12-18T10:12:34.218Z,55.63
2022-12-18T10:15:25.612Z,58.95
2022-12-18T10:18:09.314Z,56.85
2022-12-18T10:20:54.132Z,56.25
2022-12-18T10:24:04.221Z,54.92
2022-12-18T10:26:34.030Z,55.20
2022-12-18T10:29:05.658Z,54.80
2022-12-18T10:31:34.095Z,56.33
2022-12-18T10:34:02.237Z,57.90
2022-12-18T10:36:30.588Z,56.53
2022-12-18T10:39:27.343Z,63.47
2022-12-18T10:42:20.843Z,62.65
2022-12-18T10:45:23.420Z,59.60
2022-12-18T10:47:51.684Z,59.28
2022-12-18T10:51:09.797Z,55.53
2022-12-18T10:53:30.914Z,57.72
2022-12-18T10:56:01.842Z,61.30
2022-12-18T10:58:34.950Z,58.78
2022-12-18T11:01:16.794Z,66.28
2022-12-18T11:04:00.418Z,62.38
2022-12-18T11:06:30.796Z,54.45
2022-12-18T11:09:19.832Z,67.10
2022-12-18T11:12:01.258Z,64.63
2022-12-18T11:14:46.773Z,56.95
2022-12-18T11:17:35.983Z,55.58
2022-12-18T11:20:36.780Z,64.88
2022-12-18T11:23:14.476Z,56.03
2022-12-18T11:25:57.711Z,60.92
2022-12-18T11:29:09.201Z,66.00
2022-12-18T11:31:36.951Z,64.28
2022-12-18T11:34:28.635Z,62.70
2022-12-18T11:37:00.644Z,62.10
2022-12-18T11:39:36.475Z,60.08
2022-12-18T11:42:23.388Z,60.70
2022-12-18T11:45:09.998Z,58.25
2022-12-18T11:47:50.926Z,66.30
2022-12-18T11:50:26.661Z,64.55
2022-12-18T11:52:57.498Z,60.72
2022-12-18T11:55:43.154Z,63.95
2022-12-18T11:58:54.651Z,61.50
2022-12-18T12:02:17.475Z,57.45
2022-12-18T12:05:57.790Z,64.65
2022-12-18T12:08:41.002Z,64.88
2022-12-18T12:12:01.793Z,55.33
2022-12-18T12:14:42.423Z,59.58
2022-12-18T12:17:57.709Z,68.45
2022-12-18T12:20:43.777Z,67.07
2022-12-18T12:23:28.328Z,72.47
2022-12-18T12:26:37.350Z,67.03
2022-12-18T12:29:49.117Z,60.65
2022-12-18T12:33:02.538Z,63.08
2022-12-18T12:36:04.786Z,61.10
2022-12-18T12:38:52.395Z,57.47
2022-12-18T12:41:45.774Z,55.50
2022-12-18T12:44:33.280Z,57.67
2022-12-18T12:47:15.667Z,58.72
2022-12-18T12:49:48.754Z,71.22
2022-12-18T12:52:43.377Z,69.65
2022-12-18T12:55:22.878Z,66.93
2022-12-18T12:58:24.496Z,65.47
2022-12-18T13:01:06.405Z,66.28
2022-12-18T13:03:57.557Z,70.68
2022-12-18T13:06:51.421Z,57.33
2022-12-18T13:09:19.497Z,55.42
2022-12-18T13:12:07.690Z,57.63
2022-12-18T13:14:41.977Z,63.60
2022-12-18T13:17:21.756Z,69.10
2022-12-18T13:22:52.466Z,61.25
2022-12-18T13:25:37.736Z,62.55
2022-12-18T13:28:18.191Z,60.33
2022-12-18T13:30:55.547Z,65.40
2022-12-18T13:33:30.721Z,66.20
2022-12-18T13:36:23.083Z,62.38
2022-12-18T13:39:19.748Z,63.05
2022-12-18T13:42:35.098Z,64.55
2022-12-18T13:45:23.565Z,66.95
2022-12-18T13:47:51.518Z,63.30
2022-12-18T13:53:25.938Z,64.05
2022-12-18T13:55:54.033Z,59.78
2022-12-18T13:58:21.627Z,60.40
2022-12-18T14:00:50.716Z,77.40
2022-12-18T14:03:29.320Z,62.03
2022-12-18T14:06:10.027Z,70.82
2022-12-18T14:08:42.270Z,64.57
2022-12-18T14:11:26.448Z,65.90
2022-12-18T14:13:54.597Z,72.95
2022-12-18T14:16:24.006Z,67.22
2022-12-18T14:19:10.082Z,63.75
2022-12-18T14:21:50.298Z,70.38
2022-12-18T14:24:23.008Z,62.67
2022-12-18T14:26:52.313Z,66.25
2022-12-18T14:29:31.837Z,70.22
2022-12-18T14:32:19.269Z,74.72
2022-12-18T14:34:55.272Z,67.53
2022-12-18T14:37:28.041Z,69.47
2022-12-18T14:40:10.908Z,55.60
2022-12-18T14:42:42.897Z,70.80
2022-12-18T14:45:45.718Z,63.25
2022-12-18T14:48:44.165Z,68.18
2022-12-18T14:51:11.982Z,68.45
2022-12-18T14:54:10.890Z,77.07
2022-12-18T14:56:47.354Z,76.13
2022-12-18T14:59:24.978Z,74.07
2022-12-18T15:02:05.997Z,73.30
2022-12-18T15:04:45.006Z,67.38
2022-12-18T15:07:17.226Z,80.25
2022-12-18T15:10:12.018Z,83.85
2022-12-18T15:12:47.920Z,76.03
2022-12-18T15:15:34.659Z,70.63
2022-12-18T15:18:09.702Z,75.97
2022-12-18T15:20:49.635Z,74.38
2022-12-18T15:23:50.347Z,83.22
2022-12-18T15:26:21.708Z,78.07
2022-12-18T15:28:57.229Z,80.25
2022-12-18T15:31:36.415Z,76.85
2022-12-18T15:34:21.812Z,75.30
2022-12-18T15:36:51.883Z,77.25
2022-12-18T15:39:19.638Z,73.72
2022-12-18T15:42:06.147Z,76.90
2022-12-18T15:44:34.778Z,79.22
2022-12-18T15:47:02.533Z,79.15
2022-12-18T15:49:30.523Z,71.60
2022-12-18T15:52:00.972Z,79.18
2022-12-18T15:54:47.419Z,77.40
2022-12-18T15:57:24.062Z,86.50
2022-12-18T15:59:55.336Z,87.45
2022-12-18T16:02:24.027Z,84.25
2022-12-18T16:04:53.391Z,92.28
2022-12-18T16:07:25.051Z,85.47
2022-12-18T16:09:54.385Z,87.28
2022-12-18T16:12:24.873Z,86.25
2022-12-18T16:14:52.798Z,92.40
2022-12-18T16:17:21.693Z,95.38
2022-12-18T16:19:49.737Z,91.60
2022-12-18T16:22:27.784Z,87.75
2022-12-18T16:24:57.032Z,90.80
2022-12-18T16:27:25.961Z,95.70
2022-12-18T16:29:54.527Z,86.43
2022-12-18T16:32:23.709Z,87.43
2022-12-18T16:34:52.891Z,88.97
2022-12-18T16:37:20.484Z,80.97
2022-12-18T16:39:48.354Z,85.05
2022-12-18T16:42:21.161Z,86.95
2022-12-18T16:44:50.345Z,79.82
2022-12-18T16:47:18.834Z,87.18
2022-12-18T16:49:47.104Z,78.28
2022-12-18T16:52:15.029Z,83.10
2022-12-18T16:54:42.943Z,83.65
2022-12-18T16:57:17.827Z,87.07
2022-12-18T16:59:46.648Z,79.70
2022-12-18T17:02:19.077Z,86.87
2022-12-18T17:04:55.742Z,79.45
2022-12-18T17:07:24.402Z,84.57
2022-12-18T17:09:54.228Z,85.80
2022-12-18T17:12:23.055Z,86.00
2022-12-18T17:14:51.269Z,86.47
2022-12-18T17:17:21.219Z,91.70
2022-12-18T17:19:51.134Z,91.60
2022-12-18T17:22:19.736Z,88.13
2022-12-18T17:24:47.822Z,89.20
2022-12-18T17:27:15.545Z,87.72
2022-12-18T17:29:48.095Z,90.25
2022-12-18T17:32:18.504Z,80.60
2022-12-18T17:34:46.856Z,95.07
2022-12-18T17:37:15.558Z,92.00
2022-12-18T17:39:43.526Z,90.00
2022-12-18T17:42:14.590Z,91.18
2022-12-18T17:44:44.887Z,92.80
2022-12-18T17:47:14.660Z,85.18
2022-12-18T17:49:43.065Z,92.38
2022-12-18T17:52:11.093Z,87.15
2022-12-18T17:54:41.936Z,92.65
2022-12-18T17:57:09.612Z,111.32
2022-12-18T17:59:37.599Z,87.82
2022-12-18T18:02:05.257Z,90.30
2022-12-18T18:04:33.294Z,90.28
2022-12-18T18:07:00.862Z,92.85
2022-12-18T18:09:29.118Z,94.63
2022-12-18T18:12:15.743Z,92.20
2022-12-18T18:14:44.113Z,94.82
2022-12-18T18:17:11.918Z,92.32
2022-12-18T18:19:40.045Z,93.47
2022-12-18T18:22:08.095Z,85.53
2022-12-18T18:24:35.966Z,88.35
2022-12-18T18:27:03.592Z,81.95
2022-12-18T18:29:32.075Z,89.93
2022-12-18T18:32:00.241Z,85.60
2022-12-18T18:34:32.016Z,89.03
2022-12-18T18:37:02.214Z,86.03
2022-12-18T18:39:30.357Z,95.40
2022-12-18T18:41:58.181Z,95.30
2022-12-18T18:44:26.573Z,106.05
2022-12-18T18:46:59.016Z,105.78
2022-12-18T18:49:28.377Z,96.50
2022-12-18T18:51:57.590Z,106.35
2022-12-18T18:59:42.501Z,94.00
2022-12-18T19:02:14.209Z,102.53
2022-12-18T19:04:45.829Z,99.55
2022-12-18T19:07:29.543Z,94.18
2022-12-18T19:10:04.680Z,93.70
2022-12-18T19:12:53.176Z,94.07
2022-12-18T19:15:22.977Z,98.25
2022-12-18T19:17:51.949Z,96.13
2022-12-18T19:20:20.064Z,96.00
2022-12-18T19:22:50.976Z,100.60
2022-12-18T19:25:38.381Z,94.65
2022-12-18T19:28:12.033Z,107.60
2022-12-18T19:30:58.785Z,99.95
2022-12-18T19:33:43.024Z,106.15
2022-12-18T19:36:26.195Z,102.13
2022-12-18T19:38:57.384Z,103.38
2022-12-18T19:41:29.112Z,109.57
2022-12-18T19:43:59.095Z,102.03
2022-12-18T19:46:27.120Z,104.05
2022-12-18T19:48:55.041Z,103.13
2022-12-18T19:51:27.210Z,101.27
2022-12-18T19:53:59.387Z,100.57
2022-12-18T19:56:33.356Z,106.30
2022-12-18T19:59:01.610Z,112.75
2022-12-18T20:01:30.995Z,106.47
2022-12-18T20:04:00.453Z,105.25
2022-12-18T20:06:32.660Z,103.00
2022-12-18T20:09:05.368Z,104.10
2022-12-18T20:11:41.816Z,103.90
2022-12-18T20:14:23.243Z,103.00
2022-12-18T20:16:52.650Z,108.20
2022-12-18T20:19:21.820Z,101.85
2022-12-18T20:21:49.824Z,107.90
2022-12-18T20:24:17.664Z,101.93
2022-12-18T20:26:45.850Z,103.85
2022-12-18T20:29:13.427Z,104.95
2022-12-18T20:31:41.450Z,100.70
2022-12-18T20:34:09.136Z,111.20
2022-12-18T20:36:37.747Z,104.85
2022-12-18T20:39:07.655Z,103.60
2022-12-18T20:41:39.250Z,107.38
2022-12-18T20:44:22.512Z,93.45
2022-12-18T20:46:57.865Z,92.93
2022-12-18T20:49:27.067Z,100.53
2022-12-18T20:54:41.791Z,96.07
2022-12-18T20:57:11.743Z,100.03
2022-12-18T20:59:43.331Z,101.93
2022-12-18T21:02:16.479Z,106.22
2022-12-18T21:04:49.980Z,110.80
2022-12-18T21:07:18.596Z,115.82
2022-12-18T21:09:46.132Z,116.93
2022-12-18T21:12:40.482Z,112.18
2022-12-18T21:15:17.561Z,104.03
2022-12-18T21:17:46.255Z,120.30
2022-12-18T21:20:17.550Z,109.95
2022-12-18T21:22:49.379Z,101.25
2022-12-18T21:25:24.146Z,118.25
2022-12-18T21:27:57.725Z,101.82
2022-12-18T21:30:39.065Z,114.93
2022-12-18T21:33:06.973Z,104.72
2022-12-18T21:35:34.536Z,114.88
2022-12-18T21:38:02.694Z,118.55
2022-12-18T21:40:39.766Z,122.20
2022-12-18T21:43:28.560Z,130.43
2022-12-18T21:45:56.261Z,126.53
2022-12-18T21:48:25.402Z,138.15
2022-12-18T21:50:52.975Z,126.82
2022-12-18T21:53:20.981Z,115.40
2022-12-18T21:55:58.933Z,122.75
2022-12-18T21:58:27.335Z,112.55
2022-12-18T22:00:55.518Z,118.85
2022-12-18T22:03:24.255Z,114.37
2022-12-18T22:06:03.500Z,111.95
2022-12-18T22:08:42.252Z,126.15
2022-12-18T22:11:14.466Z,121.40
2022-12-18T22:13:47.239Z,102.78
2022-12-18T22:16:27.961Z,110.25
2022-12-18T22:18:58.294Z,112.05
2022-12-18T22:21:36.301Z,110.85
2022-12-18T22:24:19.612Z,109.70
2022-12-18T22:26:48.339Z,116.28
2022-12-18T22:29:39.398Z,111.18
2022-12-18T22:32:10.727Z,102.82
2022-12-18T22:34:40.504Z,102.72
2022-12-18T22:37:12.984Z,99.43
2022-12-18T22:39:40.940Z,100.15
2022-12-18T22:42:08.880Z,96.88
2022-12-18T22:44:37.186Z,97.43
2022-12-18T22:47:06.904Z,100.22
2022-12-18T22:49:36.682Z,92.70
2022-12-18T22:52:06.317Z,95.55
2022-12-18T22:54:34.507Z,96.38
2022-12-18T22:57:02.157Z,94.97
2022-12-18T22:59:31.067Z,90.47
2022-12-18T23:01:59.587Z,92.65
2022-12-18T23:04:30.613Z,93.28
2022-12-18T23:07:05.987Z,95.32
2022-12-18T23:09:34.561Z,94.68
2022-12-18T23:12:02.868Z,89.75
2022-12-18T23:14:31.969Z,95.47
2022-12-18T23:16:59.672Z,93.63
2022-12-18T23:19:27.869Z,86.82
2022-12-18T23:21:58.272Z,93.15
2022-12-18T23:24:26.619Z,90.20
2022-12-18T23:26:54.307Z,81.95
2022-12-18T23:29:22.325Z,82.75
2022-12-18T23:31:49.977Z,99.35
2022-12-18T23:34:18.084Z,94.28
2022-12-18T23:36:46.959Z,93.18
2022-12-18T23:39:28.608Z,94.35
2022-12-18T23:42:01.604Z,96.35
2022-12-18T23:44:30.541Z,97.05
2022-12-18T23:46:58.192Z,96.63
2022-12-18T23:49:26.246Z,94.22
2022-12-18T23:51:55.266Z,96.90
2022-12-18T23:54:32.717Z,92.97
2022-12-18T23:57:01.666Z,90.30
2022-12-18T23:59:29.794Z,101.55
